Terminal Aerodrome Forecast
Issued by NWS

Current Version | Previous Version | Text Only | Print | Product List | Glossary On
Versions: 1 2 3 4 5 6 7 8 9 10 11 12 13 14 15 16 17
630
FTUS46 KEKA 041120
TAFCEC
TAF
KCEC 041120Z 0412/0512 16007KT P6SM SCT015 OVC040
      TEMPO 0416/0420 5SM -SHRA BKN015 OVC025
     FM042000 18012KT 4SM -RA BR SCT007 OVC015
      TEMPO 0420/0424 1 1/2SM -RA BR BKN007 OVC012
     FM050000 33015KT P6SM -SHRA BKN015 OVC050
     FM050300 34009KT P6SM VCSH BKN030
     FM050500 36005KT P6SM SKC=

USA.gov is the U.S. government's official web portal to all federal, state and local government web resources and services.